Time;durP1;ratioP1;P1;durP2;ratioP2;P2;SDS_P1;SDS_P2;PMS_P1;PMS_P2;Temp;Humidity;BMP_temperature;BMP_pressure;BME280_temperature;BME280_humidity;BME280_pressure;Samples;Min_cycle;Max_cycle;Signal;HPM_P1;HPM_P2
2020/12/02 00:01:57;;;;;;;25.92;11.52;;;9.00;99.90;;;;;;5085850;28;20625;-73
2020/12/02 00:04:26;;;;;;;17.70;11.38;;;9.00;99.90;;;;;;5082217;28;20261;-74
2020/12/02 00:06:54;;;;;;;18.60;11.35;;;9.00;99.90;;;;;;5086838;28;20201;-73
2020/12/02 00:09:23;;;;;;;21.38;12.00;;;9.00;99.90;;;;;;5085586;28;20198;-73
2020/12/02 00:11:51;;;;;;;23.20;12.68;;;9.00;99.90;;;;;;5085298;28;20282;-73
2020/12/02 00:14:22;;;;;;;22.85;12.70;;;9.00;99.90;;;;;;5084628;28;20273;-73
2020/12/02 00:16:49;;;;;;;20.60;12.27;;;9.00;99.90;;;;;;5084742;28;20581;-73
2020/12/02 00:19:16;;;;;;;23.17;12.55;;;9.00;99.90;;;;;;5082674;28;20263;-73
2020/12/02 00:21:59;;;;;;;20.08;12.98;;;9.10;99.90;;;;;;5084413;28;20647;-73
2020/12/02 00:24:26;;;;;;;25.52;12.05;;;9.10;99.90;;;;;;5083452;28;20201;-73
2020/12/02 00:26:53;;;;;;;20.27;12.88;;;9.10;99.90;;;;;;5083334;28;20198;-73
2020/12/02 00:29:19;;;;;;;18.35;11.70;;;9.10;99.90;;;;;;5082944;28;20255;-73
2020/12/02 00:31:46;;;;;;;24.95;12.73;;;9.10;99.90;;;;;;5085744;28;20605;-73
2020/12/02 00:34:12;;;;;;;23.15;12.07;;;9.10;99.90;;;;;;5084009;28;20306;-72
2020/12/02 00:36:39;;;;;;;20.95;12.02;;;9.10;99.90;;;;;;5086158;28;20211;-73
2020/12/02 00:39:06;;;;;;;20.40;11.32;;;9.10;99.90;;;;;;5083020;28;20292;-73
2020/12/02 00:41:32;;;;;;;19.58;11.73;;;9.10;99.90;;;;;;5085729;28;20251;-72
2020/12/02 00:43:59;;;;;;;17.92;11.50;;;9.10;99.90;;;;;;5082188;28;20198;-73
2020/12/02 00:46:26;;;;;;;18.90;11.55;;;9.10;99.90;;;;;;5084995;28;20204;-73
2020/12/02 00:48:53;;;;;;;22.70;11.73;;;9.10;99.90;;;;;;5083034;28;20697;-73
2020/12/02 00:51:22;;;;;;;19.83;12.48;;;9.10;99.90;;;;;;5083862;28;20201;-73
2020/12/02 00:53:48;;;;;;;18.63;12.80;;;9.10;99.90;;;;;;5085401;28;20296;-73
2020/12/02 00:56:16;;;;;;;17.83;12.57;;;9.10;99.90;;;;;;5083909;28;20638;-73
2020/12/02 00:58:50;;;;;;;19.92;12.85;;;9.10;99.90;;;;;;5085332;28;20214;-73
2020/12/02 01:01:24;;;;;;;18.35;11.95;;;9.10;99.90;;;;;;5084008;28;20210;-73
2020/12/02 01:03:50;;;;;;;19.90;12.38;;;9.10;99.90;;;;;;5081851;28;20209;-74
2020/12/02 01:06:17;;;;;;;20.13;12.18;;;9.20;99.90;;;;;;5083459;28;20311;-75
2020/12/02 01:08:46;;;;;;;18.63;12.35;;;9.20;99.90;;;;;;5084058;28;20277;-73
2020/12/02 01:11:16;;;;;;;21.75;12.60;;;9.20;99.90;;;;;;5081372;28;20316;-75
2020/12/02 01:13:43;;;;;;;19.25;12.43;;;9.20;99.90;;;;;;5083195;28;20217;-76
2020/12/02 01:16:14;;;;;;;32.88;20.13;;;9.20;99.90;;;;;;5083097;28;20259;-74
2020/12/02 01:18:41;;;;;;;24.40;13.80;;;9.20;99.90;;;;;;5085580;28;20562;-74
2020/12/02 01:21:22;;;;;;;22.08;13.40;;;9.20;99.90;;;;;;5079964;28;20243;-74
2020/12/02 01:23:54;;;;;;;18.90;12.23;;;9.20;99.90;;;;;;5081832;28;20643;-75
2020/12/02 01:26:23;;;;;;;18.35;12.10;;;9.10;99.90;;;;;;5079347;28;20198;-75
2020/12/02 01:28:51;;;;;;;21.00;11.88;;;9.10;99.90;;;;;;5084118;28;20249;-76
2020/12/02 01:31:18;;;;;;;17.55;12.05;;;9.20;99.90;;;;;;5082808;28;20206;-75
2020/12/02 01:33:45;;;;;;;21.65;12.15;;;9.10;99.90;;;;;;5083288;28;20218;-74
2020/12/02 01:36:12;;;;;;;18.80;11.52;;;9.10;99.90;;;;;;5084290;28;20206;-76
2020/12/02 01:38:41;;;;;;;18.10;12.07;;;9.10;99.90;;;;;;5078984;28;21254;-74
2020/12/02 01:41:10;;;;;;;16.88;11.63;;;9.10;99.90;;;;;;5084567;28;20206;-76
2020/12/02 01:43:36;;;;;;;18.45;12.30;;;9.10;99.90;;;;;;5081894;28;20205;-76
2020/12/02 01:46:13;;;;;;;18.88;11.85;;;9.00;99.90;;;;;;5081862;28;20201;-75
2020/12/02 01:49:16;;;;;;;17.75;11.75;;;9.00;99.90;;;;;;5080387;28;20690;-75
2020/12/02 01:51:59;;;;;;;17.65;12.02;;;9.00;99.90;;;;;;5082207;28;20710;-75
2020/12/02 01:54:30;;;;;;;21.20;12.40;;;9.00;99.90;;;;;;5080653;28;20266;-75
2020/12/02 01:57:04;;;;;;;24.33;12.68;;;9.00;99.90;;;;;;5084050;28;20194;-76
2020/12/02 01:59:40;;;;;;;18.63;11.88;;;9.00;99.90;;;;;;5080353;28;20198;-75
2020/12/02 02:02:12;;;;;;;21.20;12.65;;;8.90;99.90;;;;;;5082689;28;20205;-75
2020/12/02 02:04:47;;;;;;;21.88;12.63;;;8.90;99.90;;;;;;5079924;28;20210;-76
2020/12/02 02:07:16;;;;;;;19.38;12.65;;;8.90;99.90;;;;;;5083200;28;20517;-75
2020/12/02 02:09:44;;;;;;;17.77;11.50;;;8.90;99.90;;;;;;5079281;28;20315;-76
2020/12/02 02:12:49;;;;;;;16.05;12.02;;;8.90;99.90;;;;;;5085050;28;20202;-75
2020/12/02 02:15:28;;;;;;;22.58;12.40;;;8.90;99.90;;;;;;5045622;28;20299;-75
2020/12/02 02:17:57;;;;;;;19.95;12.35;;;8.90;99.90;;;;;;5082594;28;20225;-75
2020/12/02 02:20:27;;;;;;;19.48;11.93;;;8.90;99.90;;;;;;5082075;28;20210;-76
2020/12/02 02:22:54;;;;;;;21.60;12.40;;;8.90;99.90;;;;;;5082114;28;20275;-75
2020/12/02 02:25:20;;;;;;;17.50;12.02;;;8.80;99.90;;;;;;5083267;28;20667;-74
2020/12/02 02:27:48;;;;;;;16.17;11.27;;;8.80;99.90;;;;;;5082228;28;20227;-77
2020/12/02 02:30:15;;;;;;;21.20;12.25;;;8.80;99.90;;;;;;5080416;28;20213;-77
2020/12/02 02:32:43;;;;;;;18.50;12.23;;;8.80;99.90;;;;;;5083747;28;20210;-76
2020/12/02 02:35:11;;;;;;;16.95;11.70;;;8.80;99.90;;;;;;5082804;28;20931;-77
2020/12/02 02:37:38;;;;;;;24.77;11.88;;;8.80;99.90;;;;;;5084458;28;20682;-77
2020/12/02 02:40:08;;;;;;;18.67;11.95;;;8.80;99.90;;;;;;5081243;28;20267;-76
2020/12/02 02:42:39;;;;;;;20.52;12.25;;;8.80;99.90;;;;;;5087460;28;20548;-76
2020/12/02 02:45:10;;;;;;;21.40;12.50;;;8.80;99.90;;;;;;5086603;28;20751;-76
2020/12/02 02:47:37;;;;;;;22.13;12.25;;;8.80;99.90;;;;;;5089075;28;20287;-76
2020/12/02 02:50:04;;;;;;;22.52;12.77;;;8.80;99.90;;;;;;5085943;28;20597;-75
2020/12/02 02:52:31;;;;;;;19.08;12.27;;;8.80;99.90;;;;;;5087147;28;20255;-76
2020/12/02 02:54:57;;;;;;;18.10;12.30;;;8.80;99.90;;;;;;5085314;28;20618;-75
2020/12/02 02:57:23;;;;;;;18.10;12.23;;;8.70;99.90;;;;;;5082781;28;20210;-75
2020/12/02 02:59:50;;;;;;;21.58;12.65;;;8.70;99.90;;;;;;5087703;28;20255;-76
2020/12/02 03:02:17;;;;;;;19.65;12.93;;;8.80;99.90;;;;;;5086628;28;20198;-75
2020/12/02 03:04:43;;;;;;;21.23;12.93;;;8.70;99.90;;;;;;5088868;28;20614;-75
2020/12/02 03:07:13;;;;;;;18.10;12.27;;;8.70;99.90;;;;;;5085528;28;20202;-76
2020/12/02 03:09:40;;;;;;;18.30;12.23;;;8.70;99.90;;;;;;5087385;28;20312;-75
2020/12/02 03:12:07;;;;;;;19.50;12.38;;;8.70;99.90;;;;;;5086633;28;20202;-75
2020/12/02 03:14:33;;;;;;;20.30;12.90;;;8.70;99.90;;;;;;5089260;28;20214;-75
2020/12/02 03:17:00;;;;;;;20.15;13.30;;;8.70;99.90;;;;;;5088960;28;20232;-76
2020/12/02 03:19:31;;;;;;;18.75;12.50;;;8.70;99.90;;;;;;5087669;28;20267;-75
2020/12/02 03:22:06;;;;;;;22.15;12.77;;;8.70;99.90;;;;;;5087971;28;20221;-75
2020/12/02 03:24:33;;;;;;;18.88;11.70;;;8.60;99.90;;;;;;5085709;28;20691;-74
2020/12/02 03:26:59;;;;;;;20.65;13.13;;;8.60;99.90;;;;;;5086663;28;20275;-77
2020/12/02 03:29:25;;;;;;;25.02;13.57;;;8.70;99.90;;;;;;5082374;28;20742;-77
2020/12/02 03:31:52;;;;;;;21.70;12.95;;;8.60;99.90;;;;;;5087373;28;20209;-76
2020/12/02 03:34:20;;;;;;;21.27;13.63;;;8.70;99.90;;;;;;5084764;28;20217;-77
2020/12/02 03:36:48;;;;;;;19.65;12.68;;;8.70;99.90;;;;;;5087545;28;20844;-76
2020/12/02 03:39:15;;;;;;;22.48;13.70;;;8.70;99.90;;;;;;5083450;28;20662;-76
2020/12/02 03:41:42;;;;;;;26.27;13.80;;;8.70;99.90;;;;;;5086604;28;20213;-76
2020/12/02 03:44:10;;;;;;;19.88;13.52;;;8.70;99.90;;;;;;5084209;28;20271;-76
2020/12/02 03:46:37;;;;;;;20.20;13.20;;;8.70;99.90;;;;;;5085177;28;20195;-77
2020/12/02 03:49:04;;;;;;;22.08;13.77;;;8.70;99.90;;;;;;5084023;28;20734;-76
2020/12/02 03:51:31;;;;;;;20.85;12.85;;;8.70;99.90;;;;;;5083768;28;20270;-76
2020/12/02 03:53:59;;;;;;;20.15;13.15;;;8.70;99.90;;;;;;5084770;28;20263;-76
2020/12/02 03:56:25;;;;;;;21.00;13.20;;;8.70;99.90;;;;;;5086347;28;20205;-76
2020/12/02 03:58:51;;;;;;;18.30;12.80;;;8.70;99.90;;;;;;5085603;28;20737;-76
2020/12/02 04:01:18;;;;;;;25.35;14.00;;;8.70;99.90;;;;;;5086880;28;20697;-75
2020/12/02 04:03:44;;;;;;;21.30;13.35;;;8.70;99.90;;;;;;5084251;28;20205;-75
2020/12/02 04:06:12;;;;;;;20.60;13.88;;;8.70;99.90;;;;;;5085026;28;20206;-76
2020/12/02 04:08:39;;;;;;;22.30;14.45;;;8.60;99.90;;;;;;5082394;28;20267;-76
2020/12/02 04:11:07;;;;;;;23.70;14.77;;;8.60;99.90;;;;;;5084660;28;20633;-76
2020/12/02 04:13:35;;;;;;;23.38;14.15;;;8.60;99.90;;;;;;5082096;28;20220;-76
2020/12/02 04:16:01;;;;;;;23.30;13.80;;;8.50;99.90;;;;;;5086789;28;20202;-76
2020/12/02 04:18:28;;;;;;;23.88;13.88;;;8.50;99.90;;;;;;5085342;28;20307;-75
2020/12/02 04:20:54;;;;;;;23.80;15.40;;;8.40;99.90;;;;;;5084518;28;20218;-76
2020/12/02 04:23:21;;;;;;;20.45;14.10;;;8.40;99.90;;;;;;5085053;28;20210;-75
2020/12/02 04:25:47;;;;;;;23.63;14.27;;;8.30;99.90;;;;;;5085712;28;20205;-76
2020/12/02 04:28:15;;;;;;;24.73;14.85;;;8.30;99.90;;;;;;5086803;28;20194;-75
2020/12/02 04:30:43;;;;;;;23.48;15.02;;;8.30;99.90;;;;;;5085755;28;20235;-77
2020/12/02 04:33:10;;;;;;;28.40;15.95;;;8.40;99.90;;;;;;5082849;28;20203;-76
2020/12/02 04:35:37;;;;;;;23.98;14.73;;;8.40;99.90;;;;;;5084825;28;20205;-75
2020/12/02 04:38:04;;;;;;;24.45;15.23;;;8.40;99.90;;;;;;5083947;28;20213;-76
2020/12/02 04:40:33;;;;;;;27.77;15.13;;;8.40;99.90;;;;;;5086912;28;20362;-75
2020/12/02 04:43:05;;;;;;;23.63;14.73;;;8.30;99.90;;;;;;5083567;28;20682;-75
2020/12/02 04:45:33;;;;;;;26.40;14.70;;;8.30;99.90;;;;;;5087657;28;20896;-75
2020/12/02 04:48:03;;;;;;;25.35;14.50;;;8.40;99.90;;;;;;5084796;28;20186;-74
2020/12/02 04:50:31;;;;;;;25.15;15.40;;;8.30;99.90;;;;;;5084560;28;20271;-75
2020/12/02 04:53:06;;;;;;;27.40;15.25;;;8.40;99.90;;;;;;5082385;28;20218;-75
2020/12/02 04:55:32;;;;;;;23.95;14.93;;;8.30;99.90;;;;;;5084279;28;20228;-76
2020/12/02 04:57:58;;;;;;;30.52;14.98;;;8.40;99.90;;;;;;5084235;28;20202;-75
2020/12/02 05:00:28;;;;;;;23.90;15.68;;;8.30;99.90;;;;;;5084000;28;20234;-75
2020/12/02 05:03:06;;;;;;;24.23;15.43;;;8.40;99.90;;;;;;5084857;28;20259;-73
2020/12/02 05:05:32;;;;;;;26.88;15.23;;;8.40;99.90;;;;;;5086145;28;20198;-74
2020/12/02 05:08:18;;;;;;;29.25;16.40;;;8.30;99.90;;;;;;5083160;28;20202;-75
2020/12/02 05:10:44;;;;;;;24.67;15.27;;;8.30;99.90;;;;;;5083198;28;20254;-75
2020/12/02 05:13:11;;;;;;;27.27;15.30;;;8.40;99.90;;;;;;5083263;28;20242;-74
2020/12/02 05:15:38;;;;;;;23.27;14.82;;;8.40;99.90;;;;;;5085220;28;20190;-75
2020/12/02 05:18:15;;;;;;;25.60;15.73;;;8.40;99.90;;;;;;5083979;28;20243;-76
2020/12/02 05:20:43;;;;;;;25.88;15.38;;;8.40;99.90;;;;;;5083841;28;20241;-74
2020/12/02 05:23:19;;;;;;;26.92;15.35;;;8.40;99.90;;;;;;5083240;28;20202;-76
2020/12/02 05:25:45;;;;;;;26.77;16.13;;;8.40;99.90;;;;;;5084181;28;20259;-75
2020/12/02 05:28:20;;;;;;;28.20;16.58;;;8.50;99.90;;;;;;5082846;28;20306;-75
2020/12/02 05:30:47;;;;;;;25.48;16.23;;;8.50;99.90;;;;;;5081831;28;20975;-75
2020/12/02 05:33:20;;;;;;;27.60;15.52;;;8.50;99.90;;;;;;5081635;28;20756;-74
2020/12/02 05:35:51;;;;;;;26.85;15.82;;;8.50;99.90;;;;;;5085118;28;20609;-76
2020/12/02 05:38:32;;;;;;;27.05;16.45;;;8.50;99.90;;;;;;5081282;28;20309;-75
2020/12/02 05:41:00;;;;;;;29.42;17.02;;;8.50;99.90;;;;;;5085271;28;20194;-74
2020/12/02 05:43:39;;;;;;;28.13;17.45;;;8.60;99.90;;;;;;5082356;28;20649;-75
2020/12/02 05:46:11;;;;;;;28.48;16.77;;;8.60;99.90;;;;;;5083090;28;20232;-73
2020/12/02 05:48:41;;;;;;;31.05;17.67;;;8.50;99.90;;;;;;5080826;28;20202;-74
2020/12/02 05:51:15;;;;;;;29.38;16.73;;;8.50;99.90;;;;;;5081226;28;20212;-74
2020/12/02 05:53:48;;;;;;;28.45;17.27;;;8.50;99.90;;;;;;5080051;28;20266;-74
2020/12/02 05:56:15;;;;;;;31.63;17.13;;;8.60;99.90;;;;;;5083984;28;20216;-74
2020/12/02 05:58:42;;;;;;;29.67;17.88;;;8.60;99.90;;;;;;5081281;28;20214;-74
2020/12/02 06:01:12;;;;;;;27.52;18.00;;;8.60;99.90;;;;;;5085118;28;20209;-74
2020/12/02 06:03:40;;;;;;;33.92;18.65;;;8.60;99.90;;;;;;5081151;28;20727;-74
2020/12/02 06:06:13;;;;;;;32.60;18.65;;;8.60;99.90;;;;;;5084942;28;20201;-74
2020/12/02 06:08:41;;;;;;;31.80;18.40;;;8.50;99.90;;;;;;5080435;28;20202;-74
2020/12/02 06:11:36;;;;;;;33.70;19.33;;;8.50;99.90;;;;;;5082914;28;20282;-73
2020/12/02 06:14:09;;;;;;;34.47;18.13;;;8.50;99.90;;;;;;5082195;28;20209;-75
2020/12/02 06:16:46;;;;;;;36.28;19.73;;;8.40;99.90;;;;;;5083146;28;20205;-73
2020/12/02 06:19:18;;;;;;;36.28;20.73;;;8.30;99.90;;;;;;5080789;28;20225;-72
2020/12/02 06:21:46;;;;;;;36.70;19.83;;;8.30;99.90;;;;;;5083204;28;20727;-72
2020/12/02 06:24:14;;;;;;;36.60;20.52;;;8.30;99.90;;;;;;5081934;28;20201;-72
2020/12/02 06:26:44;;;;;;;39.80;20.42;;;8.30;99.90;;;;;;5082061;28;20259;-72
2020/12/02 06:29:25;;;;;;;38.90;21.88;;;8.30;99.90;;;;;;5080957;28;20221;-72
2020/12/02 06:31:57;;;;;;;38.65;21.65;;;8.40;99.90;;;;;;5082672;28;20227;-71
2020/12/02 06:34:27;;;;;;;38.83;21.55;;;8.40;99.90;;;;;;5081491;28;20243;-72
2020/12/02 06:37:13;;;;;;;40.75;22.50;;;8.50;99.90;;;;;;5082220;28;20206;-71
2020/12/02 06:39:41;;;;;;;38.35;20.45;;;8.50;99.90;;;;;;5080801;28;20202;-72
2020/12/02 06:42:29;;;;;;;47.10;22.05;;;8.60;99.90;;;;;;5082625;28;20267;-72
2020/12/02 06:45:31;;;;;;;36.63;20.75;;;8.60;99.90;;;;;;5083598;28;20198;-72
2020/12/02 06:48:02;;;;;;;42.78;21.65;;;8.70;99.90;;;;;;5081276;28;20209;-72
2020/12/02 06:50:32;;;;;;;36.08;20.48;;;8.70;99.90;;;;;;5082093;28;20198;-72
2020/12/02 06:53:10;;;;;;;36.20;21.02;;;8.70;99.90;;;;;;5082885;28;20252;-72
2020/12/02 06:55:36;;;;;;;37.75;20.92;;;8.70;99.90;;;;;;5082844;28;20197;-74
2020/12/02 06:58:05;;;;;;;41.30;21.17;;;8.80;99.90;;;;;;5081530;28;20675;-74
2020/12/02 07:00:40;;;;;;;39.08;22.17;;;8.80;99.90;;;;;;5084240;28;20209;-74
2020/12/02 07:03:20;;;;;;;37.67;21.45;;;8.80;99.90;;;;;;5081036;28;20205;-74
2020/12/02 07:05:49;;;;;;;36.35;20.55;;;8.80;99.90;;;;;;5082301;28;20208;-74
2020/12/02 07:08:20;;;;;;;35.33;21.13;;;8.80;99.90;;;;;;5079623;28;20675;-74
2020/12/02 07:11:02;;;;;;;36.05;20.70;;;8.90;99.90;;;;;;5081112;28;20240;-75
2020/12/02 07:13:31;;;;;;;33.25;20.30;;;8.90;99.90;;;;;;5078522;28;20225;-73
2020/12/02 07:15:58;;;;;;;36.85;20.52;;;8.90;99.90;;;;;;5081053;28;20202;-73
2020/12/02 07:18:26;;;;;;;34.85;20.40;;;8.90;99.90;;;;;;5079843;28;20267;-76
2020/12/02 07:21:02;;;;;;;37.50;20.30;;;8.90;99.90;;;;;;5082355;28;20206;-76
2020/12/02 07:23:32;;;;;;;34.75;20.17;;;8.90;99.90;;;;;;5077561;28;20217;-76
2020/12/02 07:26:00;;;;;;;38.10;21.42;;;9.00;99.90;;;;;;5082120;28;20301;-78
2020/12/02 07:28:26;;;;;;;42.90;20.95;;;9.00;99.90;;;;;;5081432;28;21013;-77
2020/12/02 07:30:53;;;;;;;37.95;20.45;;;9.00;99.90;;;;;;5083271;28;20584;-76
2020/12/02 07:33:23;;;;;;;36.30;20.70;;;9.00;99.90;;;;;;5082558;28;20215;-76
2020/12/02 07:36:10;;;;;;;37.50;20.52;;;8.90;99.90;;;;;;5085257;28;20201;-78
2020/12/02 07:38:36;;;;;;;35.60;20.73;;;9.00;99.90;;;;;;5083554;28;20210;-77
2020/12/02 07:41:10;;;;;;;39.47;21.58;;;9.00;99.90;;;;;;5087151;28;20259;-74
2020/12/02 07:43:37;;;;;;;37.50;21.80;;;9.00;99.90;;;;;;5082206;28;20194;-78
2020/12/02 07:46:03;;;;;;;39.67;22.77;;;8.90;99.90;;;;;;5087324;28;20310;-76
2020/12/02 07:48:31;;;;;;;38.60;22.63;;;9.00;99.90;;;;;;5083007;28;20229;-77
2020/12/02 07:51:00;;;;;;;41.17;22.30;;;8.90;99.90;;;;;;5083379;28;20229;-76
2020/12/02 07:53:39;;;;;;;39.35;22.35;;;8.90;99.90;;;;;;5082016;28;20247;-76
2020/12/02 07:56:13;;;;;;;38.22;22.10;;;8.90;99.90;;;;;;5084060;28;20209;-75
2020/12/02 07:58:40;;;;;;;43.60;23.40;;;8.90;99.90;;;;;;5080346;28;20210;-81
2020/12/02 08:01:16;;;;;;;40.08;22.48;;;8.90;99.90;;;;;;5083621;28;20301;-74
2020/12/02 08:03:43;;;;;;;40.60;22.83;;;8.90;99.90;;;;;;5083982;28;20285;-73
2020/12/02 08:06:20;;;;;;;40.22;23.33;;;8.90;99.90;;;;;;5085706;28;20620;-75
2020/12/02 08:08:46;;;;;;;39.13;21.77;;;8.90;99.90;;;;;;5082316;28;20255;-74
2020/12/02 08:11:16;;;;;;;40.55;23.00;;;8.90;99.90;;;;;;5082628;28;20700;-72
2020/12/02 08:13:51;;;;;;;38.03;23.35;;;9.00;99.90;;;;;;5080421;28;20217;-72
2020/12/02 08:16:30;;;;;;;40.70;23.00;;;9.00;99.90;;;;;;5080851;28;20808;-73
2020/12/02 08:18:59;;;;;;;42.85;23.52;;;9.00;99.90;;;;;;5083484;28;20225;-75
2020/12/02 08:21:29;;;;;;;42.47;23.40;;;9.00;99.90;;;;;;5083998;28;20267;-74
2020/12/02 08:24:16;;;;;;;38.17;21.83;;;9.00;99.90;;;;;;5083806;28;20202;-73
2020/12/02 08:26:44;;;;;;;38.72;22.77;;;9.00;99.90;;;;;;5086042;28;20214;-73
2020/12/02 08:29:11;;;;;;;45.45;22.48;;;9.00;99.90;;;;;;5083814;28;20198;-73
2020/12/02 08:31:38;;;;;;;35.80;21.48;;;8.90;99.90;;;;;;5086269;28;20231;-74
2020/12/02 08:34:09;;;;;;;41.10;22.38;;;8.90;99.90;;;;;;5082341;28;20218;-74
2020/12/02 08:36:36;;;;;;;38.60;20.60;;;8.90;99.90;;;;;;5086298;28;20206;-72
2020/12/02 08:39:04;;;;;;;38.75;22.08;;;8.90;99.90;;;;;;5085191;28;20687;-74
2020/12/02 08:41:40;;;;;;;38.85;21.95;;;8.80;99.90;;;;;;5087695;28;20556;-73
2020/12/02 08:44:09;;;;;;;39.22;21.85;;;8.80;99.90;;;;;;5083884;28;20751;-73
2020/12/02 08:46:46;;;;;;;38.55;21.67;;;8.80;99.90;;;;;;5086733;28;20625;-73
2020/12/02 08:49:13;;;;;;;35.60;20.92;;;8.80;99.90;;;;;;5084623;28;20650;-73
2020/12/02 08:51:39;;;;;;;36.45;21.15;;;8.90;99.90;;;;;;5084029;28;20206;-73
2020/12/02 08:54:10;;;;;;;40.28;21.02;;;8.90;99.90;;;;;;5083659;28;20690;-74
2020/12/02 08:56:38;;;;;;;38.28;21.58;;;8.90;99.90;;;;;;5085036;28;20580;-74
2020/12/02 08:59:06;;;;;;;36.42;20.95;;;8.90;99.90;;;;;;5084324;28;20206;-75
2020/12/02 09:01:34;;;;;;;37.83;20.95;;;8.90;99.90;;;;;;5083891;28;20202;-74
2020/12/02 09:04:00;;;;;;;34.42;20.30;;;8.90;99.90;;;;;;5081710;28;20222;-76
2020/12/02 09:06:26;;;;;;;35.58;20.38;;;8.90;99.90;;;;;;5083336;28;20234;-76
2020/12/02 09:08:53;;;;;;;36.15;20.88;;;8.90;99.90;;;;;;5085645;28;20205;-75
2020/12/02 09:11:24;;;;;;;35.53;20.90;;;8.90;99.90;;;;;;5083966;28;20238;-74
2020/12/02 09:13:51;;;;;;;38.75;21.30;;;8.90;99.90;;;;;;5083794;28;20229;-74
2020/12/02 09:16:27;;;;;;;37.50;20.88;;;8.90;99.90;;;;;;5084104;28;20206;-72
2020/12/02 09:18:55;;;;;;;37.35;20.60;;;9.00;99.90;;;;;;5082257;28;20602;-73
2020/12/02 09:21:22;;;;;;;38.42;21.42;;;9.00;99.90;;;;;;5083774;28;20213;-74
2020/12/02 09:23:49;;;;;;;37.13;20.73;;;9.00;99.90;;;;;;5081862;28;20209;-75
2020/12/02 09:26:17;;;;;;;34.13;19.88;;;9.10;99.90;;;;;;5083737;28;20674;-72
2020/12/02 09:28:44;;;;;;;34.80;21.35;;;9.00;99.90;;;;;;5083309;28;21651;-73
2020/12/02 09:31:10;;;;;;;37.10;20.63;;;9.00;99.90;;;;;;5085548;28;20283;-72
2020/12/02 09:33:36;;;;;;;32.60;19.98;;;9.10;99.90;;;;;;5082845;28;20217;-72
2020/12/02 09:36:04;;;;;;;36.00;21.17;;;9.10;99.90;;;;;;5084982;28;20205;-73
2020/12/02 09:38:31;;;;;;;37.83;21.20;;;9.10;99.90;;;;;;5081809;28;20224;-73
2020/12/02 09:41:11;;;;;;;34.47;20.88;;;9.10;99.90;;;;;;5084116;28;20209;-73
2020/12/02 09:44:00;;;;;;;35.75;20.60;;;9.20;99.90;;;;;;5082618;28;20267;-73
2020/12/02 09:46:29;;;;;;;33.72;20.80;;;9.20;99.90;;;;;;5083340;28;20194;-73
2020/12/02 09:48:55;;;;;;;33.33;20.40;;;9.20;99.90;;;;;;5082981;28;20197;-73
2020/12/02 09:51:26;;;;;;;36.20;20.95;;;9.20;99.90;;;;;;5081607;28;20750;-72
2020/12/02 09:53:54;;;;;;;32.30;19.45;;;9.30;99.90;;;;;;5083770;28;21251;-72
2020/12/02 09:56:20;;;;;;;32.90;20.23;;;9.30;99.90;;;;;;5084305;28;20216;-72
2020/12/02 09:58:47;;;;;;;30.95;19.58;;;9.30;99.90;;;;;;5081905;28;20209;-72
2020/12/02 10:01:16;;;;;;;33.15;20.08;;;9.30;99.90;;;;;;5084852;28;20236;-72
2020/12/02 10:04:15;;;;;;;32.35;20.02;;;9.30;99.90;;;;;;5079970;28;20266;-72
2020/12/02 10:07:12;;;;;;;37.80;20.88;;;9.30;99.90;;;;;;5081821;28;20226;-72
2020/12/02 10:10:04;;;;;;;35.53;20.38;;;9.30;99.90;;;;;;5081313;28;20317;-73
2020/12/02 10:12:44;;;;;;;34.28;19.65;;;9.30;99.90;;;;;;5084265;28;20288;-73
2020/12/02 10:15:19;;;;;;;34.35;20.77;;;9.20;99.90;;;;;;5079389;28;20868;-72
2020/12/02 10:18:15;;;;;;;33.92;19.80;;;9.20;99.90;;;;;;5081756;28;20220;-72
2020/12/02 10:20:44;;;;;;;34.05;19.73;;;9.30;99.90;;;;;;5080492;28;20781;-72
2020/12/02 10:23:46;;;;;;;33.65;20.40;;;9.30;99.90;;;;;;5079819;28;20202;-72
2020/12/02 10:26:43;;;;;;;37.25;20.27;;;9.30;99.90;;;;;;5077020;28;20202;-72
2020/12/02 10:29:13;;;;;;;32.75;20.25;;;9.30;99.90;;;;;;5082096;28;20262;-73
2020/12/02 10:31:49;;;;;;;33.42;19.63;;;9.30;99.90;;;;;;5080961;28;21059;-72
2020/12/02 10:34:21;;;;;;;39.08;21.98;;;9.30;99.90;;;;;;5084463;28;20695;-72
2020/12/02 10:36:52;;;;;;;32.97;20.17;;;9.30;99.90;;;;;;5086702;28;20206;-72
2020/12/02 10:39:23;;;;;;;34.75;20.33;;;9.30;99.90;;;;;;5083295;28;20714;-72
2020/12/02 10:42:18;;;;;;;35.00;21.00;;;9.30;99.90;;;;;;5084494;28;20205;-72
2020/12/02 10:44:58;;;;;;;32.17;19.60;;;9.30;99.90;;;;;;5083409;28;20198;-72
2020/12/02 10:47:51;;;;;;;31.95;19.80;;;9.30;99.90;;;;;;5083218;28;20226;-73
2020/12/02 10:50:19;;;;;;;32.90;19.98;;;9.30;99.90;;;;;;5080503;28;20194;-73
2020/12/02 10:52:48;;;;;;;34.40;20.30;;;9.30;99.90;;;;;;5081154;28;20214;-73
2020/12/02 10:55:19;;;;;;;34.42;20.63;;;9.30;99.90;;;;;;5082064;28;20291;-72
2020/12/02 10:57:55;;;;;;;33.10;20.35;;;9.40;99.90;;;;;;5083579;28;20263;-73
2020/12/02 11:00:22;;;;;;;34.67;20.50;;;9.40;99.90;;;;;;5082381;28;20738;-73
2020/12/02 11:03:02;;;;;;;31.88;19.83;;;9.50;99.90;;;;;;5086988;28;20212;-73
2020/12/02 11:05:29;;;;;;;31.08;18.73;;;9.50;99.90;;;;;;5087295;28;20213;-73
2020/12/02 11:08:03;;;;;;;31.80;18.95;;;9.50;99.90;;;;;;5087335;28;20225;-73
2020/12/02 11:10:38;;;;;;;34.70;20.13;;;9.50;99.90;;;;;;5086883;28;20286;-73
2020/12/02 11:13:16;;;;;;;33.63;19.33;;;9.50;99.90;;;;;;5087271;28;20720;-73
2020/12/02 11:15:51;;;;;;;31.45;18.95;;;9.60;99.90;;;;;;5088108;28;20221;-73
2020/12/02 11:18:46;;;;;;;36.38;20.45;;;9.60;99.90;;;;;;5083971;28;20197;-73
2020/12/02 11:21:24;;;;;;;34.95;19.88;;;9.60;99.90;;;;;;5086596;28;20663;-73
2020/12/02 11:24:11;;;;;;;33.92;19.90;;;9.60;99.90;;;;;;5084796;28;20685;-73
2020/12/02 11:26:40;;;;;;;31.88;19.40;;;9.70;99.90;;;;;;5086264;28;20326;-73
2020/12/02 11:29:10;;;;;;;31.98;19.15;;;9.70;99.90;;;;;;5084454;28;20201;-73
2020/12/02 11:32:00;;;;;;;34.22;19.35;;;9.70;99.90;;;;;;5086238;28;20251;-75
2020/12/02 11:34:43;;;;;;;35.60;20.27;;;9.60;99.90;;;;;;5062974;28;20287;-75
2020/12/02 11:37:14;;;;;;;31.73;19.48;;;9.60;99.90;;;;;;5087403;28;20205;-73
2020/12/02 11:40:02;;;;;;;29.30;18.33;;;9.60;99.90;;;;;;5082262;28;20202;-73
2020/12/02 11:42:37;;;;;;;28.80;18.70;;;9.60;99.90;;;;;;5084583;28;20359;-73
2020/12/02 11:45:12;;;;;;;33.97;19.38;;;9.50;99.80;;;;;;5084949;28;20581;-74
2020/12/02 11:47:51;;;;;;;36.90;20.27;;;9.50;99.80;;;;;;5084899;28;20246;-73
2020/12/02 11:50:21;;;;;;;34.45;19.35;;;9.50;99.80;;;;;;5084650;28;20670;-73
2020/12/02 11:53:16;;;;;;;34.50;19.98;;;9.50;99.80;;;;;;5084645;28;20198;-73
2020/12/02 11:55:43;;;;;;;33.88;19.50;;;9.50;99.90;;;;;;5083542;28;20314;-74
2020/12/02 11:58:12;;;;;;;39.08;20.30;;;9.50;99.90;;;;;;5084608;28;20205;-74
2020/12/02 12:00:38;;;;;;;33.70;19.58;;;9.50;99.90;;;;;;5085361;28;20193;-74
2020/12/02 12:03:21;;;;;;;34.80;19.67;;;9.50;99.90;;;;;;5085155;28;20262;-74
2020/12/02 12:06:02;;;;;;;33.30;19.45;;;9.50;99.90;;;;;;5082596;28;20205;-74
2020/12/02 12:08:42;;;;;;;29.45;18.20;;;9.50;99.90;;;;;;5084278;28;20711;-74
2020/12/02 12:11:18;;;;;;;32.83;19.20;;;9.50;99.90;;;;;;5085169;28;20226;-74
2020/12/02 12:13:53;;;;;;;30.00;18.77;;;9.50;99.90;;;;;;5081159;28;20647;-73
2020/12/02 12:16:28;;;;;;;31.25;18.60;;;9.60;99.90;;;;;;5087172;28;20274;-74
2020/12/02 12:19:01;;;;;;;31.75;19.30;;;9.60;99.90;;;;;;5083550;28;20194;-74
2020/12/02 12:21:33;;;;;;;27.08;17.25;;;9.60;99.80;;;;;;5085679;28;20202;-74
2020/12/02 12:24:04;;;;;;;31.40;18.05;;;9.60;99.70;;;;;;5084161;28;20198;-74
2020/12/02 12:26:36;;;;;;;29.17;17.92;;;9.60;99.70;;;;;;5084214;28;20202;-74
2020/12/02 12:29:06;;;;;;;32.00;17.90;;;9.70;99.70;;;;;;5085055;28;20271;-73
2020/12/02 12:31:43;;;;;;;25.38;16.30;;;9.70;99.60;;;;;;5086148;28;20194;-73
2020/12/02 12:34:32;;;;;;;24.88;16.33;;;9.70;99.50;;;;;;5082552;28;20217;-73
2020/12/02 12:37:02;;;;;;;27.20;15.48;;;9.70;99.20;;;;;;5084601;28;20689;-75
2020/12/02 12:39:32;;;;;;;26.40;16.00;;;9.80;99.10;;;;;;5082483;28;20659;-75
2020/12/02 12:41:59;;;;;;;29.83;17.45;;;9.80;99.00;;;;;;5085078;28;20617;-74
2020/12/02 12:44:31;;;;;;;24.83;15.48;;;9.80;98.80;;;;;;5082458;28;20247;-73
2020/12/02 12:47:06;;;;;;;27.88;15.57;;;9.80;98.70;;;;;;5086289;28;20670;-74
2020/12/02 12:49:32;;;;;;;26.50;15.98;;;9.80;98.50;;;;;;5083753;28;20198;-75
2020/12/02 12:52:01;;;;;;;26.17;16.02;;;9.80;98.40;;;;;;5085789;28;20639;-74
2020/12/02 12:54:28;;;;;;;28.10;16.13;;;9.80;98.30;;;;;;5083074;28;20735;-75
2020/12/02 12:56:56;;;;;;;26.35;15.95;;;9.80;98.20;;;;;;5087116;28;20217;-73
2020/12/02 12:59:24;;;;;;;26.08;15.70;;;9.80;98.10;;;;;;5083398;28;20201;-75